Terminal Aerodrome Forecast
Issued by NWS

Home | Current Version | Previous Version | Graphics & Text | Print | Product List | Glossary On
Versions: 1 2 3 4 5 6 7 8 9 10 11 12 13 14 15 16 17
000
FTUS43 KGRB 210728 AAA
TAFCWA
TAF AMD
KCWA 210728Z 2107/2206 22008KT 4SM BR OVC003
      TEMPO 2107/2111 2SM BR
     FM211300 28005KT 5SM BR BKN007
     FM211600 25008KT P6SM BKN250
     FM212200 19005KT P6SM SCT250=

USA.gov is the U.S. government's official web portal to all federal, state and local government web resources and services.